Time;durP1;ratioP1;P1;durP2;ratioP2;P2;SDS_P1;SDS_P2;PMS_P1;PMS_P2;Temp;Humidity;BMP_temperature;BMP_pressure;BME280_temperature;BME280_humidity;BME280_pressure;Samples;Min_cycle;Max_cycle;Signal;HPM_P1;HPM_P2
2023/11/25 00:01:36;;;;;;;3.55;1.15;;;;;;;3.13;84.33;95569.69;4847610;29;20054;-81
2023/11/25 00:04:08;;;;;;;3.28;1.02;;;;;;;3.15;84.47;95578.06;4847737;29;20088;-81
2023/11/25 00:06:39;;;;;;;2.42;0.98;;;;;;;3.11;84.20;95587.09;4846961;29;20523;-81
2023/11/25 00:09:15;;;;;;;2.33;0.85;;;;;;;3.08;84.26;95601.09;4846932;29;20140;-82
2023/11/25 00:12:04;;;;;;;1.85;0.90;;;;;;;3.05;82.90;95603.97;4848686;29;20054;-80
2023/11/25 00:14:59;;;;;;;2.45;1.10;;;;;;;2.99;83.36;95609.75;4847658;29;20058;-81
2023/11/25 00:17:37;;;;;;;4.43;1.35;;;;;;;2.99;83.70;95614.13;4848530;29;20536;-82
2023/11/25 00:20:40;;;;;;;2.15;1.10;;;;;;;2.97;84.19;95619.41;4847695;29;20057;-81
2023/11/25 00:23:44;;;;;;;3.28;1.13;;;;;;;2.98;84.42;95628.78;4848242;29;20053;-82
2023/11/25 00:26:34;;;;;;;2.10;1.30;;;;;;;2.95;83.75;95630.84;4847703;29;20053;-82
2023/11/25 00:29:38;;;;;;;3.75;1.30;;;;;;;2.91;85.36;95629.56;4847708;29;20068;-82
2023/11/25 00:32:37;;;;;;;3.03;0.80;;;;;;;2.93;84.38;95648.22;4848164;29;20050;-82
2023/11/25 00:35:11;;;;;;;2.75;1.10;;;;;;;2.88;83.98;95646.94;4847406;29;20053;-81
2023/11/25 00:37:47;;;;;;;2.90;1.08;;;;;;;2.83;82.86;95651.75;4847668;29;20575;-81
2023/11/25 00:40:27;;;;;;;2.70;0.93;;;;;;;2.80;84.01;95659.81;4846664;29;20118;-81
2023/11/25 00:43:15;;;;;;;3.00;1.10;;;;;;;2.79;83.93;95663.31;4846812;29;20061;-81
2023/11/25 00:45:46;;;;;;;2.78;1.15;;;;;;;2.79;83.98;95671.06;4847250;29;20227;-82
2023/11/25 00:48:14;;;;;;;2.05;0.70;;;;;;;2.82;84.30;95662.19;4846017;29;20455;-81
2023/11/25 00:50:45;;;;;;;3.97;1.25;;;;;;;2.85;84.29;95672.22;4846584;29;20134;-79
2023/11/25 00:53:16;;;;;;;3.17;1.05;;;;;;;2.89;84.73;95679.47;4847317;29;20053;-80
2023/11/25 00:55:46;;;;;;;2.95;1.05;;;;;;;2.92;84.47;95687.84;4846260;29;20531;-82
2023/11/25 00:58:16;;;;;;;3.15;0.75;;;;;;;2.90;84.28;95690.56;4845904;29;20070;-82
2023/11/25 01:04:23;;;;;;;3.55;0.95;;;;;;;2.88;83.52;95703.59;4846297;29;20252;-81
2023/11/25 01:06:54;;;;;;;3.10;1.00;;;;;;;2.86;83.50;95715.84;4846324;29;20074;-81
2023/11/25 01:09:30;;;;;;;3.88;0.90;;;;;;;2.85;83.23;95716.81;4846089;29;20050;-81
2023/11/25 01:11:59;;;;;;;3.35;0.90;;;;;;;2.86;82.93;95726.16;4845578;29;20053;-82
2023/11/25 01:14:31;;;;;;;2.63;1.05;;;;;;;2.86;82.74;95730.47;4846477;29;20137;-82
2023/11/25 01:17:01;;;;;;;4.63;0.90;;;;;;;2.82;82.42;95735.16;4845920;29;20114;-81
2023/11/25 01:19:29;;;;;;;1.33;0.80;;;;;;;2.81;82.40;95738.66;4846199;29;20056;-82
2023/11/25 01:22:02;;;;;;;5.47;0.90;;;;;;;2.79;81.97;95748.31;4929959;23;20060;-83
2023/11/25 01:24:30;;;;;;;1.15;0.70;;;;;;;2.76;81.22;95750.41;4879469;29;20053;-81
2023/11/25 01:27:04;;;;;;;5.28;1.40;;;;;;;2.72;80.10;95749.91;4879171;29;20090;-82
2023/11/25 01:29:32;;;;;;;2.65;0.95;;;;;;;2.71;80.60;95761.16;4879367;29;20137;-83
2023/11/25 01:32:02;;;;;;;5.25;2.33;;;;;;;2.71;81.02;95766.31;4879460;29;20050;-82
2023/11/25 01:34:30;;;;;;;2.22;1.00;;;;;;;2.73;81.20;95768.72;4880648;29;20057;-81
2023/11/25 01:36:58;;;;;;;1.75;0.80;;;;;;;2.73;81.32;95776.47;4880991;29;20053;-82
2023/11/25 01:39:30;;;;;;;2.53;0.80;;;;;;;2.73;80.97;95776.47;4879591;29;20077;-81
2023/11/25 01:41:57;;;;;;;1.92;0.68;;;;;;;2.73;80.69;95777.25;4880569;29;20049;-81
2023/11/25 01:44:25;;;;;;;1.10;0.70;;;;;;;2.74;81.08;95778.88;4880994;29;20076;-81
2023/11/25 01:49:40;;;;;;;1.02;0.70;;;;;;;2.80;81.64;95787.75;4884244;29;20057;-81
2023/11/25 01:52:09;;;;;;;4.22;1.00;;;;;;;2.78;81.31;95790.50;4883938;29;20044;-83
2023/11/25 01:54:37;;;;;;;5.45;1.08;;;;;;;2.79;81.24;95791.31;4884428;29;20034;-82
2023/11/25 01:57:07;;;;;;;2.08;1.05;;;;;;;2.79;81.36;95802.41;4883960;29;20056;-81
2023/11/25 01:59:37;;;;;;;3.10;0.85;;;;;;;2.78;81.48;95798.22;4886771;29;20037;-81
2023/11/25 02:02:06;;;;;;;3.50;0.70;;;;;;;2.75;81.70;95803.66;4887227;29;20072;-80
2023/11/25 02:04:35;;;;;;;2.72;0.70;;;;;;;2.73;80.75;95822.81;4887124;29;20034;-81
2023/11/25 02:07:08;;;;;;;2.75;0.80;;;;;;;2.70;80.64;95829.06;4885313;29;20405;-82
2023/11/25 02:09:37;;;;;;;2.28;0.57;;;;;;;2.69;80.12;95832.63;4882633;29;20037;-81
2023/11/25 02:12:11;;;;;;;3.78;0.90;;;;;;;2.66;80.33;95846.59;4882476;29;20029;-81
2023/11/25 02:14:39;;;;;;;1.65;0.55;;;;;;;2.64;80.14;95842.56;4884186;29;20090;-82
2023/11/25 02:17:11;;;;;;;1.10;0.50;;;;;;;2.60;79.73;95854.94;4881861;29;20080;-82
2023/11/25 02:19:42;;;;;;;5.15;1.40;;;;;;;2.60;80.21;95864.41;4880898;29;20082;-83
2023/11/25 02:22:16;;;;;;;2.13;0.60;;;;;;;2.61;80.68;95876.34;4880704;29;20063;-83
2023/11/25 02:24:49;;;;;;;2.10;0.80;;;;;;;2.62;81.75;95878.78;4881481;29;20090;-81
2023/11/25 02:27:17;;;;;;;2.50;0.85;;;;;;;2.64;81.77;95876.81;4882642;29;20063;-80
2023/11/25 02:29:50;;;;;;;5.70;2.13;;;;;;;2.65;81.48;95873.31;4885435;29;20038;-82
2023/11/25 02:32:21;;;;;;;3.47;0.70;;;;;;;2.66;81.65;95872.34;4886851;29;20041;-80
2023/11/25 02:34:52;;;;;;;2.35;0.73;;;;;;;2.67;80.53;95875.75;4886914;29;20034;-83
2023/11/25 02:37:24;;;;;;;3.50;0.60;;;;;;;2.66;81.34;95882.63;4886757;29;20066;-81
2023/11/25 02:39:58;;;;;;;2.83;0.70;;;;;;;2.65;80.09;95887.97;4884645;29;20053;-81
2023/11/25 02:42:29;;;;;;;0.80;0.65;;;;;;;2.68;80.29;95892.78;4884000;29;20061;-81
2023/11/25 02:45:01;;;;;;;3.20;0.70;;;;;;;2.71;80.37;95891.69;4882978;29;20059;-82
2023/11/25 02:47:30;;;;;;;1.27;0.60;;;;;;;2.71;80.36;95902.78;4883030;29;20489;-82
2023/11/25 02:50:03;;;;;;;1.80;0.32;;;;;;;2.73;80.68;95907.78;4883315;29;20041;-81
2023/11/25 02:52:32;;;;;;;1.63;0.60;;;;;;;2.74;81.81;95912.81;4882886;29;20082;-83
2023/11/25 02:55:10;;;;;;;2.92;0.47;;;;;;;2.79;82.49;95909.78;4882602;29;20116;-82
2023/11/25 02:57:45;;;;;;;1.48;0.50;;;;;;;2.81;82.10;95918.97;4881751;29;20049;-81
2023/11/25 03:00:28;;;;;;;2.50;0.60;;;;;;;2.80;81.73;95922.50;4882198;29;20053;-81
2023/11/25 03:03:07;;;;;;;2.72;0.70;;;;;;;2.80;80.63;95916.53;4882832;29;20041;-82
2023/11/25 03:05:45;;;;;;;1.85;0.65;;;;;;;2.80;80.85;95917.38;4882806;29;20064;-82
2023/11/25 03:08:16;;;;;;;1.58;0.77;;;;;;;2.79;80.85;95922.66;4882928;29;20057;-81
2023/11/25 03:10:52;;;;;;;2.85;0.90;;;;;;;2.77;80.96;95935.66;4882369;29;20074;-81
2023/11/25 03:13:21;;;;;;;1.98;0.70;;;;;;;2.73;80.10;95939.50;4881654;29;20054;-82
2023/11/25 03:15:54;;;;;;;5.40;1.35;;;;;;;2.69;80.11;95945.94;4881384;29;20053;-81
2023/11/25 03:18:24;;;;;;;;;;;;;;;2.69;80.01;95951.09;4882531;29;20061;-84
2023/11/25 03:20:57;;;;;;;2.10;0.63;;;;;;;2.67;80.75;95955.56;4881258;29;19935;-82
2023/11/25 03:23:30;;;;;;;0.77;0.40;;;;;;;2.63;80.45;95967.91;4880892;29;20109;-81
2023/11/25 03:25:59;;;;;;;4.40;0.80;;;;;;;2.58;79.45;95971.88;4881005;29;20081;-82
2023/11/25 03:28:28;;;;;;;3.42;0.70;;;;;;;2.56;78.83;95966.06;4881594;29;20057;-82
2023/11/25 03:31:04;;;;;;;2.20;0.70;;;;;;;2.51;79.44;95973.44;4879716;29;20057;-83
2023/11/25 03:33:34;;;;;;;2.47;0.77;;;;;;;2.51;78.32;95983.72;4880237;29;20060;-82
2023/11/25 03:36:07;;;;;;;4.30;0.68;;;;;;;2.48;77.92;95983.06;4879745;29;20045;-81
2023/11/25 03:38:40;;;;;;;1.95;0.47;;;;;;;2.51;78.68;95994.03;4878952;29;20145;-82
2023/11/25 03:41:10;;;;;;;2.17;0.32;;;;;;;2.54;79.97;95991.19;4879122;29;20057;-81
2023/11/25 03:43:38;;;;;;;1.85;0.60;;;;;;;2.54;79.59;95989.41;4881284;29;20080;-81
2023/11/25 03:46:06;;;;;;;4.57;1.33;;;;;;;2.54;79.87;95989.41;4880433;29;20520;-83
2023/11/25 03:48:34;;;;;;;1.67;0.73;;;;;;;2.55;80.01;95993.59;4878193;29;20064;-81
2023/11/25 03:51:04;;;;;;;1.17;0.40;;;;;;;2.55;79.73;96000.50;4877205;29;20057;-82
2023/11/25 03:53:32;;;;;;;2.20;0.50;;;;;;;2.52;79.64;96000.81;4878132;29;20050;-81
2023/11/25 03:56:00;;;;;;;2.03;0.70;;;;;;;2.53;79.89;96012.72;4878646;29;20057;-83
2023/11/25 03:58:30;;;;;;;8.18;1.20;;;;;;;2.51;79.83;96009.47;4878262;29;20295;-81
2023/11/25 04:00:58;;;;;;;3.22;0.55;;;;;;;2.49;79.66;96012.19;4883041;29;20049;-81
2023/11/25 04:03:26;;;;;;;5.65;0.70;;;;;;;2.46;78.46;96010.72;4885456;29;20033;-81
2023/11/25 04:05:54;;;;;;;2.15;0.68;;;;;;;2.43;78.85;96017.94;4885118;29;20033;-81
2023/11/25 04:08:23;;;;;;;1.77;0.52;;;;;;;2.44;79.74;96009.25;4882436;29;20053;-82
2023/11/25 04:10:52;;;;;;;2.83;1.38;;;;;;;2.43;79.89;96018.75;4877605;29;20056;-82
2023/11/25 04:13:21;;;;;;;3.22;0.68;;;;;;;2.42;80.15;96021.47;4878217;29;20052;-81
2023/11/25 04:15:50;;;;;;;2.22;0.60;;;;;;;2.38;79.49;96018.34;4877808;29;20117;-81
2023/11/25 04:18:18;;;;;;;1.08;0.55;;;;;;;2.38;79.31;96015.78;4877933;29;20059;-82
2023/11/25 04:20:46;;;;;;;7.53;0.80;;;;;;;2.42;80.72;96018.88;4877577;29;20080;-83
2023/11/25 04:23:15;;;;;;;1.33;0.73;;;;;;;2.45;80.68;96021.19;4879123;29;20076;-82
2023/11/25 04:25:43;;;;;;;3.13;0.68;;;;;;;2.46;80.53;96025.38;4878036;29;20050;-82
2023/11/25 04:28:12;;;;;;;1.75;0.60;;;;;;;2.47;79.70;96039.84;4881549;29;20066;-82
2023/11/25 04:30:40;;;;;;;2.90;1.02;;;;;;;2.46;79.11;96036.47;4878592;29;20053;-82
2023/11/25 04:33:11;;;;;;;1.42;0.60;;;;;;;2.44;79.03;96040.94;4877541;29;20117;-82
2023/11/25 04:35:39;;;;;;;2.17;0.75;;;;;;;2.43;79.34;96041.13;4879017;29;20066;-82
2023/11/25 04:38:08;;;;;;;2.75;0.73;;;;;;;2.43;79.33;96047.06;4878310;29;20508;-83
2023/11/25 04:40:36;;;;;;;1.48;0.60;;;;;;;2.43;79.03;96051.41;4878699;29;20082;-81
2023/11/25 04:43:04;;;;;;;4.88;0.75;;;;;;;2.42;78.87;96050.56;4877814;29;20054;-82
2023/11/25 04:45:35;;;;;;;3.30;1.05;;;;;;;2.44;78.10;96058.97;4877011;29;20061;-81
2023/11/25 04:48:08;;;;;;;3.15;0.80;;;;;;;2.42;77.97;96055.72;4876599;29;20093;-81
2023/11/25 04:50:51;;;;;;;1.67;0.77;;;;;;;2.45;79.45;96064.94;4877451;29;20061;-82
2023/11/25 04:53:23;;;;;;;2.22;0.65;;;;;;;2.47;80.30;96068.16;4876667;29;20072;-83
2023/11/25 04:55:58;;;;;;;4.63;0.90;;;;;;;2.50;80.43;96067.09;4876411;29;20076;-83
2023/11/25 04:58:30;;;;;;;3.92;1.10;;;;;;;2.52;79.97;96067.75;4878091;29;20069;-82
2023/11/25 05:03:56;;;;;;;3.13;1.35;;;;;;;2.54;80.96;96071.78;4878517;29;20060;-82
2023/11/25 05:06:26;;;;;;;1.42;0.85;;;;;;;2.55;80.34;96068.25;4879340;29;20068;-83
2023/11/25 05:08:55;;;;;;;4.93;1.30;;;;;;;2.51;79.08;96063.53;4878981;29;20054;-82
2023/11/25 05:11:28;;;;;;;3.17;1.40;;;;;;;2.46;79.17;96067.34;4878742;29;20065;-82
2023/11/25 05:13:58;;;;;;;6.70;3.30;;;;;;;2.45;79.69;96076.03;4876858;29;20084;-82
2023/11/25 05:16:28;;;;;;;2.97;2.13;;;;;;;2.45;80.49;96072.66;4877356;29;20068;-83
2023/11/25 05:19:02;;;;;;;3.28;1.85;;;;;;;2.41;78.82;96071.34;4879666;29;20058;-83
2023/11/25 05:21:36;;;;;;;3.30;1.20;;;;;;;2.37;77.32;96075.16;4882601;29;20054;-82
2023/11/25 05:24:05;;;;;;;2.08;1.33;;;;;;;2.32;76.97;96070.44;4882246;29;20051;-82
2023/11/25 05:26:37;;;;;;;6.05;1.80;;;;;;;2.28;77.74;96074.25;4881233;29;20515;-81
2023/11/25 05:29:12;;;;;;;3.90;1.38;;;;;;;2.27;78.11;96077.75;4881702;29;20089;-84
2023/11/25 05:31:43;;;;;;;2.65;1.63;;;;;;;2.25;78.06;96077.09;4881000;29;20061;-82
2023/11/25 05:34:15;;;;;;;4.00;2.55;;;;;;;2.24;78.19;96078.84;4880800;29;20053;-83
2023/11/25 05:36:50;;;;;;;4.03;1.38;;;;;;;2.24;79.05;96081.41;4880240;29;20057;-83
2023/11/25 05:39:20;;;;;;;;;;;;;;;2.28;79.87;96081.97;4881702;29;20139;-84
2023/11/25 05:41:54;;;;;;;2.72;1.63;;;;;;;2.26;79.03;96083.88;4881385;29;19919;-83
2023/11/25 05:44:25;;;;;;;3.70;1.83;;;;;;;2.25;79.26;96092.53;4880648;29;20068;-81
2023/11/25 05:47:00;;;;;;;8.45;2.55;;;;;;;2.23;80.45;96095.25;4880438;29;20049;-84
2023/11/25 05:49:37;;;;;;;4.38;1.30;;;;;;;2.22;79.84;96093.63;4879641;29;20068;-83
2023/11/25 05:52:09;;;;;;;3.00;1.23;;;;;;;2.20;79.08;96100.66;4879928;29;20117;-83
2023/11/25 05:54:42;;;;;;;3.40;1.63;;;;;;;2.19;79.51;96103.41;4880718;29;20053;-84
2023/11/25 05:57:12;;;;;;;3.72;1.27;;;;;;;2.15;79.13;96102.88;4880384;29;20068;-85
2023/11/25 05:59:43;;;;;;;7.32;2.05;;;;;;;2.13;79.06;96109.13;4881503;29;20068;-83
2023/11/25 06:02:12;;;;;;;6.18;1.52;;;;;;;2.11;79.56;96108.44;4879819;29;20061;-84
2023/11/25 06:04:47;;;;;;;5.03;2.22;;;;;;;2.10;79.58;96099.09;4886522;29;20105;-85
2023/11/25 06:07:22;;;;;;;4.05;1.10;;;;;;;2.06;80.08;96104.53;4886680;29;20121;-84
2023/11/25 06:09:50;;;;;;;5.03;1.45;;;;;;;2.03;79.45;96094.53;4886495;29;20053;-86
2023/11/25 06:12:19;;;;;;;5.22;1.33;;;;;;;2.03;79.90;96098.84;4886046;29;20066;-86
2023/11/25 06:14:52;;;;;;;5.05;1.80;;;;;;;2.00;80.06;96094.78;4886045;29;20108;-83
2023/11/25 06:17:23;;;;;;;6.30;1.95;;;;;;;1.99;80.11;96105.22;4886173;29;20049;-84
2023/11/25 06:19:53;;;;;;;2.90;1.50;;;;;;;1.97;79.76;96102.00;4882733;29;20113;-84
2023/11/25 06:22:25;;;;;;;2.00;1.38;;;;;;;1.94;80.18;96100.50;4878643;29;20057;-83
2023/11/25 06:24:57;;;;;;;5.30;1.98;;;;;;;1.91;80.68;96087.13;4878314;29;20060;-83
2023/11/25 06:27:29;;;;;;;6.00;2.00;;;;;;;1.89;80.08;96089.81;4878820;29;20057;-82
2023/11/25 06:30:02;;;;;;;7.68;2.08;;;;;;;1.90;80.35;96083.72;4883943;29;20053;-84
2023/11/25 06:32:37;;;;;;;4.22;2.03;;;;;;;1.88;80.36;96100.25;4884718;29;20102;-84
2023/11/25 06:35:08;;;;;;;3.40;1.80;;;;;;;1.85;80.67;96107.28;4885846;29;20069;-82
2023/11/25 06:37:41;;;;;;;5.95;3.13;;;;;;;1.85;81.02;96102.13;4886023;29;20563;-81
2023/11/25 06:40:17;;;;;;;5.15;2.30;;;;;;;1.85;81.18;96101.34;4885704;29;20080;-84
2023/11/25 06:42:45;;;;;;;6.85;1.80;;;;;;;1.85;81.26;96101.34;4886520;29;20048;-84
2023/11/25 06:45:16;;;;;;;9.18;2.65;;;;;;;1.88;81.15;96095.94;4885652;29;20042;-80
2023/11/25 06:47:49;;;;;;;4.47;1.95;;;;;;;1.86;80.56;96092.69;4885227;29;20045;-81
2023/11/25 06:50:25;;;;;;;6.07;2.25;;;;;;;1.85;81.15;96101.34;4882305;29;20065;-82
2023/11/25 06:53:01;;;;;;;7.05;2.13;;;;;;;1.84;79.99;96102.31;4883523;29;20041;-82
2023/11/25 06:55:31;;;;;;;5.43;2.28;;;;;;;1.83;80.02;96104.03;4885632;29;20061;-84
2023/11/25 06:58:05;;;;;;;7.03;2.92;;;;;;;1.85;80.65;96106.47;4885584;29;20053;-82
2023/11/25 07:00:43;;;;;;;5.70;3.03;;;;;;;1.84;81.22;96102.31;4885036;29;20057;-83
2023/11/25 07:03:14;;;;;;;7.07;3.47;;;;;;;1.83;81.45;96098.09;4885494;29;20042;-82
2023/11/25 07:05:44;;;;;;;4.60;2.80;;;;;;;1.81;81.27;96105.94;4884587;29;20049;-84
2023/11/25 07:08:15;;;;;;;6.57;2.75;;;;;;;1.80;81.62;96101.75;4885025;29;20045;-84
2023/11/25 07:10:53;;;;;;;11.07;3.13;;;;;;;1.79;81.53;96107.88;4884744;29;20037;-83
2023/11/25 07:13:27;;;;;;;10.60;4.70;;;;;;;1.77;81.22;96098.66;4884636;29;20313;-85
2023/11/25 07:15:58;;;;;;;6.40;2.92;;;;;;;1.75;81.28;96101.38;4884982;29;20137;-85
2023/11/25 07:18:28;;;;;;;6.35;2.72;;;;;;;1.76;81.06;96097.84;4879959;29;20069;-86
2023/11/25 07:21:00;;;;;;;4.93;2.80;;;;;;;1.74;80.90;96102.31;4879331;29;20060;-83
2023/11/25 07:23:30;;;;;;;7.13;2.95;;;;;;;1.72;81.36;96104.22;4884312;29;20045;-84
2023/11/25 07:26:00;;;;;;;6.82;3.35;;;;;;;1.74;81.90;96106.66;4885955;29;20102;-85
2023/11/25 07:28:30;;;;;;;6.50;3.10;;;;;;;1.74;81.80;96106.66;4885097;29;20082;-84
2023/11/25 07:31:00;;;;;;;19.42;10.65;;;;;;;1.73;81.39;96117.88;4884698;29;20045;-84
2023/11/25 07:33:31;;;;;;;8.10;3.63;;;;;;;1.74;81.11;96119.50;4884379;29;20049;-90
2023/11/25 07:36:03;;;;;;;8.00;3.03;;;;;;;1.73;81.46;96118.69;4879361;29;20052;-87
2023/11/25 07:38:50;;;;;;;6.55;3.15;;;;;;;1.74;80.60;96129.78;4879264;29;20053;-87
2023/11/25 07:41:48;;;;;;;7.63;3.90;;;;;;;1.63;81.18;96131.56;4867077;29;20034;-88
2023/11/25 07:44:36;;;;;;;8.95;3.20;;;;;;;1.62;82.04;96135.09;4863673;29;20058;-86
2023/11/25 07:47:24;;;;;;;4.82;3.20;;;;;;;1.58;82.18;96127.78;4877213;29;20053;-85
2023/11/25 07:49:54;;;;;;;7.40;3.75;;;;;;;1.65;83.61;96132.22;4875599;29;20045;-85
2023/11/25 07:52:26;;;;;;;7.90;4.15;;;;;;;1.72;83.19;96126.53;4857259;29;20042;-84
2023/11/25 07:55:00;;;;;;;12.82;4.22;;;;;;;1.72;81.94;96123.97;4855625;29;20046;-86
2023/11/25 07:57:27;;;;;;;9.07;2.50;;;;;;;1.69;81.60;96129.41;4852133;29;20085;-82
2023/11/25 07:59:55;;;;;;;40.17;20.58;;;;;;;1.69;82.35;96129.41;4857638;29;20265;-84
2023/11/25 08:02:25;;;;;;;10.82;5.88;;;;;;;1.77;83.28;96134.66;4869205;29;20080;-84
2023/11/25 08:04:53;;;;;;;8.68;4.53;;;;;;;1.83;83.04;96127.19;4852178;29;20050;-83
2023/11/25 08:07:25;;;;;;;8.02;4.22;;;;;;;1.90;82.75;96129.22;4853177;29;20065;-85
2023/11/25 08:09:56;;;;;;;6.63;4.30;;;;;;;1.92;83.11;96133.25;4856396;29;20061;-86
2023/11/25 08:12:29;;;;;;;7.90;3.90;;;;;;;1.96;83.01;96138.94;4870791;29;20487;-84
2023/11/25 08:14:56;;;;;;;7.03;4.53;;;;;;;2.03;83.37;96145.16;4865829;29;20475;-82
2023/11/25 08:17:27;;;;;;;10.90;5.10;;;;;;;2.08;82.67;96144.72;4862310;29;20049;-84
2023/11/25 08:19:55;;;;;;;7.55;4.45;;;;;;;2.11;82.50;96152.19;4863458;29;20136;-85
2023/11/25 08:22:24;;;;;;;7.32;5.05;;;;;;;2.19;82.60;96147.16;4864469;29;20109;-83
2023/11/25 08:24:55;;;;;;;7.40;3.92;;;;;;;2.19;82.63;96145.38;4858640;29;20508;-84
2023/11/25 08:27:22;;;;;;;9.00;4.60;;;;;;;2.19;81.89;96152.31;4845695;29;20085;-85
2023/11/25 08:29:51;;;;;;;7.60;4.80;;;;;;;2.18;82.37;96150.66;4845212;29;20469;-83
2023/11/25 08:32:19;;;;;;;8.43;4.20;;;;;;;2.20;83.22;96165.00;4861366;29;20054;-82
2023/11/25 08:34:47;;;;;;;12.13;4.93;;;;;;;2.29;84.05;96165.13;4863047;29;20057;-84
2023/11/25 08:37:15;;;;;;;7.57;4.50;;;;;;;2.34;84.06;96157.78;4864890;29;20094;-81
2023/11/25 08:39:44;;;;;;;6.75;4.05;;;;;;;2.40;84.35;96167.50;4864470;29;20064;-85
2023/11/25 08:42:14;;;;;;;8.60;3.97;;;;;;;2.41;83.51;96169.94;4863168;29;20460;-81
2023/11/25 08:44:45;;;;;;;14.15;6.35;;;;;;;2.40;82.78;96168.31;4863476;29;20148;-86
2023/11/25 08:47:14;;;;;;;6.70;3.40;;;;;;;2.40;81.50;96167.50;4847812;29;20576;-83
2023/11/25 08:49:41;;;;;;;6.80;3.60;;;;;;;2.36;81.99;96159.28;4845605;29;20088;-81
2023/11/25 08:52:09;;;;;;;8.43;4.10;;;;;;;2.40;81.82;96160.59;4845410;29;20424;-85
2023/11/25 08:54:37;;;;;;;10.20;3.75;;;;;;;2.43;80.98;96152.59;4844043;29;20090;-82
2023/11/25 08:57:07;;;;;;;9.73;5.10;;;;;;;2.45;81.29;96145.56;4847847;29;20145;-82
2023/11/25 08:59:35;;;;;;;27.17;13.27;;;;;;;2.53;81.79;96144.03;4844506;29;20060;-84
2023/11/25 09:02:04;;;;;;;7.55;3.75;;;;;;;2.56;81.69;96136.00;4844452;29;20137;-83
2023/11/25 09:04:36;;;;;;;5.47;3.35;;;;;;;2.58;82.30;96139.25;4851711;29;20457;-83
2023/11/25 09:07:07;;;;;;;7.32;2.72;;;;;;;2.63;83.06;96152.53;4862627;29;20049;-81
2023/11/25 09:09:35;;;;;;;4.60;2.67;;;;;;;2.61;81.10;96144.94;4862476;29;20054;-81
2023/11/25 09:12:03;;;;;;;6.18;2.65;;;;;;;2.59;80.73;96146.03;4863985;29;20076;-81
2023/11/25 09:14:31;;;;;;;5.65;2.95;;;;;;;2.56;80.07;96151.44;4846242;29;20488;-81
2023/11/25 09:16:59;;;;;;;5.65;2.63;;;;;;;2.57;80.45;96147.94;4855282;29;20085;-82
2023/11/25 09:19:26;;;;;;;14.98;4.15;;;;;;;2.59;81.13;96148.59;4862680;29;20058;-83
2023/11/25 09:21:56;;;;;;;3.97;2.42;;;;;;;2.63;81.08;96149.94;4862124;29;20057;-86
2023/11/25 09:24:25;;;;;;;5.47;2.60;;;;;;;2.64;81.71;96148.97;4861885;29;20526;-82
2023/11/25 09:26:54;;;;;;;6.97;2.85;;;;;;;2.65;81.38;96153.19;4860434;29;20049;-77
2023/11/25 09:29:22;;;;;;;25.38;12.52;;;;;;;2.66;80.63;96157.38;4858762;29;20145;-81
2023/11/25 09:31:49;;;;;;;11.93;3.97;;;;;;;2.66;80.71;96155.59;4859275;29;20089;-79
2023/11/25 09:34:17;;;;;;;10.65;3.33;;;;;;;2.68;79.82;96164.00;4874733;29;20106;-80
2023/11/25 09:36:45;;;;;;;8.95;2.55;;;;;;;2.69;79.86;96162.25;4879375;29;20041;-80
2023/11/25 09:39:14;;;;;;;5.63;2.70;;;;;;;2.68;80.38;96171.72;4870767;29;20038;-83
2023/11/25 09:41:43;;;;;;;10.95;2.90;;;;;;;2.73;80.79;96163.56;4875817;29;20086;-79
2023/11/25 09:44:14;;;;;;;6.22;2.65;;;;;;;2.75;80.65;96166.81;4862816;29;20061;-80
2023/11/25 09:46:42;;;;;;;7.20;2.80;;;;;;;2.77;81.04;96164.09;4860675;29;20508;-80
2023/11/25 09:49:10;;;;;;;5.43;2.10;;;;;;;2.81;81.70;96163.66;4860169;29;20057;-80
2023/11/25 09:51:37;;;;;;;7.78;2.55;;;;;;;2.83;81.41;96156.59;4857395;29;20132;-79
2023/11/25 09:54:07;;;;;;;7.95;2.28;;;;;;;2.86;80.68;96164.06;4860589;29;20057;-80
2023/11/25 09:56:37;;;;;;;5.43;2.13;;;;;;;2.86;80.22;96153.75;4860292;29;20050;-80
2023/11/25 09:59:05;;;;;;;8.98;2.60;;;;;;;2.85;79.93;96151.31;4856157;29;20064;-80
2023/11/25 10:01:33;;;;;;;6.55;2.33;;;;;;;2.92;80.66;96148.97;4853925;29;20053;-80
2023/11/25 10:04:03;;;;;;;6.25;3.50;;;;;;;2.99;81.55;96150.00;4842535;29;20479;-82
2023/11/25 10:06:31;;;;;;;7.68;2.60;;;;;;;3.05;80.61;96146.84;4867106;29;20049;-79
2023/11/25 10:08:59;;;;;;;9.23;2.65;;;;;;;3.01;79.78;96136.00;4845652;29;20050;-77
2023/11/25 10:11:30;;;;;;;6.00;2.08;;;;;;;3.05;80.82;96127.03;4846415;29;20512;-79
2023/11/25 10:13:59;;;;;;;5.55;1.98;;;;;;;3.09;80.17;96128.38;4849315;29;20050;-78
2023/11/25 10:16:28;;;;;;;6.65;2.10;;;;;;;3.14;79.43;96133.09;4855438;29;20136;-82
2023/11/25 10:18:56;;;;;;;6.63;2.60;;;;;;;3.21;79.81;96128.16;4864012;29;20072;-81
2023/11/25 10:21:24;;;;;;;6.05;2.10;;;;;;;3.26;79.28;96116.44;4863768;29;20081;-81
2023/11/25 10:23:54;;;;;;;5.13;3.03;;;;;;;3.25;78.60;96116.59;4864070;29;20169;-81
2023/11/25 10:26:22;;;;;;;2.75;1.83;;;;;;;3.28;78.06;96119.69;4864809;29;20088;-80
2023/11/25 10:28:49;;;;;;;4.22;2.13;;;;;;;3.27;78.05;96110.31;4864603;29;20096;-81
2023/11/25 10:31:19;;;;;;;9.52;2.90;;;;;;;3.33;78.17;96113.28;4865085;29;20508;-80
2023/11/25 10:33:46;;;;;;;5.65;2.58;;;;;;;3.34;77.59;96109.72;4867463;29;20049;-82
2023/11/25 10:36:16;;;;;;;12.75;4.80;;;;;;;3.36;77.66;96107.81;4863969;29;20396;-82
2023/11/25 10:38:44;;;;;;;11.32;3.47;;;;;;;3.46;78.71;96104.19;4864395;29;20049;-80
2023/11/25 10:41:13;;;;;;;6.10;1.98;;;;;;;3.61;78.34;96096.75;4864576;29;20120;-80
2023/11/25 10:43:43;;;;;;;3.45;1.80;;;;;;;3.69;78.52;96096.78;4865489;29;20575;-82
2023/11/25 10:46:11;;;;;;;3.60;1.65;;;;;;;3.91;79.39;96087.75;4864521;29;20123;-81
2023/11/25 10:48:41;;;;;;;6.60;1.50;;;;;;;4.22;78.45;96082.09;4866973;29;20077;-81
2023/11/25 10:51:09;;;;;;;6.32;1.52;;;;;;;4.53;77.57;96086.72;4872108;29;20082;-82
2023/11/25 10:53:39;;;;;;;9.75;2.28;;;;;;;4.76;76.58;96079.19;4867726;29;20059;-81
2023/11/25 10:56:08;;;;;;;3.38;1.55;;;;;;;4.95;77.45;96070.34;4867880;29;20063;-81
2023/11/25 10:58:37;;;;;;;5.32;1.85;;;;;;;5.16;75.54;96069.91;4868528;29;20058;-81
2023/11/25 11:01:06;;;;;;;7.55;1.58;;;;;;;5.23;72.82;96063.09;4868199;29;20073;-82
2023/11/25 11:04:05;;;;;;;7.25;2.97;;;;;;;5.25;71.39;96061.16;4867740;29;20068;-81
2023/11/25 11:06:42;;;;;;;6.25;2.88;;;;;;;5.25;70.39;96055.19;4868519;29;20049;-81
2023/11/25 11:09:16;;;;;;;8.07;1.63;;;;;;;5.28;70.97;96052.28;4847911;29;20501;-80
2023/11/25 11:11:48;;;;;;;4.55;2.40;;;;;;;5.36;71.35;96053.06;4864270;29;20125;-81
2023/11/25 11:14:17;;;;;;;7.10;2.28;;;;;;;5.41;71.61;96050.00;4864921;29;20073;-80
2023/11/25 11:16:54;;;;;;;5.25;1.92;;;;;;;5.41;69.28;96042.25;4849993;29;20074;-80
2023/11/25 11:19:29;;;;;;;5.10;1.52;;;;;;;5.41;70.41;96038.84;4847106;29;20057;-81
2023/11/25 11:22:05;;;;;;;5.53;1.50;;;;;;;5.36;70.43;96031.59;4845699;29;20046;-80
2023/11/25 11:24:45;;;;;;;5.13;1.65;;;;;;;5.32;68.24;96035.47;4848903;29;20053;-80
2023/11/25 11:27:22;;;;;;;31.23;13.15;;;;;;;5.27;68.85;96038.53;4862503;29;20085;-80
2023/11/25 11:29:56;;;;;;;9.70;3.20;;;;;;;5.24;68.79;96025.91;4866584;29;20118;-79
2023/11/25 11:32:27;;;;;;;3.85;1.55;;;;;;;5.20;70.11;96031.59;4844132;29;20132;-80
2023/11/25 11:34:56;;;;;;;6.22;1.70;;;;;;;5.15;69.03;96030.28;4847947;29;20053;-79
2023/11/25 11:37:36;;;;;;;8.50;1.55;;;;;;;5.07;68.04;96032.91;4861618;29;20054;-80
2023/11/25 11:40:05;;;;;;;8.38;1.70;;;;;;;5.01;70.34;96017.19;4843528;29;20061;-81
2023/11/25 11:42:34;;;;;;;8.60;2.03;;;;;;;4.99;71.70;96019.97;4864860;29;20061;-81
2023/11/25 11:45:15;;;;;;;3.58;1.60;;;;;;;4.94;70.25;96017.84;4870882;29;20038;-81
2023/11/25 11:47:46;;;;;;;6.47;2.10;;;;;;;4.86;68.92;96025.59;4866694;29;20065;-80
2023/11/25 11:50:19;;;;;;;9.40;2.70;;;;;;;4.75;69.07;96031.06;4856164;29;20053;-81
2023/11/25 11:53:07;;;;;;;11.77;3.10;;;;;;;4.70;70.16;96026.38;4850423;29;20045;-81
2023/11/25 11:55:38;;;;;;;9.57;2.58;;;;;;;4.64;70.39;96014.09;4865257;29;20058;-81
2023/11/25 11:58:08;;;;;;;10.98;2.10;;;;;;;4.60;70.58;96014.59;4862258;29;20085;-80
2023/11/25 12:00:46;;;;;;;12.88;3.08;;;;;;;4.57;72.02;96020.03;4849851;29;20050;-81
2023/11/25 12:03:14;;;;;;;11.77;2.97;;;;;;;4.60;72.21;96023.13;4852752;29;20436;-81
2023/11/25 12:05:44;;;;;;;11.90;2.33;;;;;;;4.62;72.02;96028.16;4857037;29;20053;-80
2023/11/25 12:08:12;;;;;;;4.32;1.77;;;;;;;4.58;72.14;96021.69;4846363;29;20057;-81
2023/11/25 12:10:40;;;;;;;8.05;2.85;;;;;;;4.56;71.35;96024.41;4850142;29;20548;-80
2023/11/25 12:13:08;;;;;;;14.73;3.25;;;;;;;4.44;70.70;96023.91;4862324;29;20054;-81